EGHH - Bournemouth Airport
Distance from station: E 5mi, 14km
Updated: 01/22/2018 9:50am
Overcast
Overcast
 Wind from W
Wind: W 5 mph , 7 km/h
Temperature: 48°F , 9°C
Wind Chill: 46°F , 8°C
Dew Point: 41°F , 5°C
Humidity: 76%
Barometer: 30.09 inHg , 1019 hPa
Clouds: Overcast
Visibility: 6 miles , 10 km
Cloud details: Overcast 2800 ft
2018/01/22 17:50 EGHH 221750Z 26004KT 9999 OVC028 09/05 Q1019